createdAt,value
2022-10-19T00:02:51.083Z,10.16
2022-10-19T00:06:50.675Z,10.15
2022-10-19T00:10:50.107Z,10.05
2022-10-19T00:14:51.992Z,10.20
2022-10-19T00:18:51.055Z,10.37
2022-10-19T00:22:51.290Z,9.86
2022-10-19T00:26:50.868Z,9.85
2022-10-19T00:30:53.476Z,9.73
2022-10-19T00:34:53.121Z,9.56
2022-10-19T00:38:52.840Z,9.47
2022-10-19T00:42:57.113Z,9.43
2022-10-19T00:47:01.670Z,8.88
2022-10-19T00:51:01.908Z,8.55
2022-10-19T00:55:01.790Z,9.11
2022-10-19T00:59:01.393Z,9.40
2022-10-19T01:03:03.149Z,9.45
2022-10-19T01:07:05.227Z,9.44
2022-10-19T01:11:20.921Z,9.63
2022-10-19T01:15:33.050Z,9.35
2022-10-19T01:19:59.980Z,9.47
2022-10-19T01:24:28.097Z,9.46
2022-10-19T01:28:40.966Z,9.45
2022-10-19T01:33:01.227Z,9.29
2022-10-19T01:37:05.025Z,8.88
2022-10-19T01:41:15.601Z,8.68
2022-10-19T01:45:18.901Z,8.97
2022-10-19T01:49:24.573Z,8.99
2022-10-19T01:53:26.440Z,9.14
2022-10-19T01:57:30.452Z,8.96
2022-10-19T02:01:33.164Z,9.56
2022-10-19T02:05:37.166Z,9.80
2022-10-19T02:09:36.984Z,9.38
2022-10-19T02:13:38.024Z,9.04
2022-10-19T02:17:42.135Z,8.50
2022-10-19T02:21:44.227Z,8.33
2022-10-19T02:25:43.832Z,8.58
2022-10-19T02:29:43.281Z,8.72
2022-10-19T02:33:42.897Z,8.73
2022-10-19T02:37:44.644Z,8.42
2022-10-19T02:41:49.154Z,8.25
2022-10-19T02:45:57.072Z,8.15
2022-10-19T02:49:56.564Z,8.11
2022-10-19T02:54:01.203Z,8.38
2022-10-19T02:58:03.755Z,8.47
2022-10-19T03:02:03.221Z,8.57
2022-10-19T03:06:02.849Z,8.66
2022-10-19T03:10:04.218Z,8.67
2022-10-19T03:14:03.771Z,8.76
2022-10-19T03:18:03.037Z,9.05
2022-10-19T03:22:02.704Z,9.35
2022-10-19T03:26:06.519Z,9.53
2022-10-19T03:30:09.318Z,9.51
2022-10-19T03:34:08.315Z,9.44
2022-10-19T03:38:07.898Z,9.40
2022-10-19T03:42:09.373Z,9.39
2022-10-19T03:46:08.649Z,9.60
2022-10-19T03:50:10.926Z,9.75
2022-10-19T03:54:14.507Z,9.92
2022-10-19T03:58:16.225Z,10.09
2022-10-19T04:02:15.944Z,10.08
2022-10-19T04:06:21.213Z,10.17
2022-10-19T04:10:22.159Z,10.17
2022-10-19T04:14:32.042Z,10.15
2022-10-19T04:18:33.245Z,10.17
2022-10-19T04:22:32.918Z,10.33
2022-10-19T04:26:33.114Z,10.18
2022-10-19T04:30:34.405Z,10.18
2022-10-19T04:34:36.434Z,9.92
2022-10-19T04:38:38.776Z,10.00
2022-10-19T04:42:39.569Z,9.87
2022-10-19T04:46:50.521Z,9.47
2022-10-19T04:51:12.025Z,9.12
2022-10-19T04:55:12.384Z,9.40
2022-10-19T04:59:17.814Z,9.37
2022-10-19T05:08:34.668Z,9.40
2022-10-19T05:17:47.063Z,9.42
2022-10-19T05:21:54.265Z,9.32
2022-10-19T05:26:38.101Z,9.22
2022-10-19T05:31:50.440Z,9.22
2022-10-19T05:37:02.958Z,9.10
2022-10-19T05:42:15.571Z,9.41
2022-10-19T05:46:50.297Z,9.83
2022-10-19T05:51:20.908Z,9.91
2022-10-19T05:55:54.598Z,10.59
2022-10-19T06:07:28.457Z,11.25
2022-10-19T06:12:41.066Z,11.91
2022-10-19T06:17:19.899Z,12.06
2022-10-19T06:27:17.176Z,12.64
2022-10-19T08:16:28.155Z,15.59
2022-10-19T08:20:27.944Z,15.91
2022-10-19T08:24:26.993Z,15.44
2022-10-19T08:28:26.987Z,15.52
2022-10-19T08:32:28.688Z,15.78
2022-10-19T08:36:30.893Z,15.86
2022-10-19T08:40:32.910Z,15.88
2022-10-19T08:44:59.115Z,16.24
2022-10-19T08:49:02.457Z,16.08
2022-10-19T08:53:06.648Z,16.01
2022-10-19T08:57:16.562Z,15.81
2022-10-19T09:01:26.384Z,16.04
2022-10-19T09:05:38.179Z,16.17
2022-10-19T09:09:43.719Z,16.81
2022-10-19T09:14:04.100Z,16.62
2022-10-19T09:18:04.822Z,16.96
2022-10-19T09:22:09.743Z,16.93
2022-10-19T09:26:16.786Z,16.89
2022-10-19T09:30:21.317Z,16.77
2022-10-19T09:34:27.993Z,17.36
2022-10-19T09:38:33.770Z,17.23
2022-10-19T09:42:36.463Z,17.62
2022-10-19T09:46:48.080Z,17.86
2022-10-19T09:50:53.393Z,18.10
2022-10-19T09:55:03.241Z,18.54
2022-10-19T09:59:03.192Z,18.54
2022-10-19T10:03:03.479Z,18.61
2022-10-19T10:07:03.151Z,18.77
2022-10-19T10:11:13.771Z,19.01
2022-10-19T10:15:20.010Z,18.48
2022-10-19T10:19:20.267Z,18.64
2022-10-19T10:23:29.741Z,18.94
2022-10-19T10:27:36.531Z,19.21
2022-10-19T10:31:37.955Z,18.74
2022-10-19T10:35:38.386Z,19.03
2022-10-19T10:39:43.370Z,19.40
2022-10-19T10:43:56.016Z,19.50
2022-10-19T10:47:58.822Z,19.32
2022-10-19T10:52:02.098Z,19.80
2022-10-19T10:56:01.853Z,20.24
2022-10-19T11:00:11.973Z,20.38
2022-10-19T11:04:17.425Z,20.69
2022-10-19T11:08:24.763Z,20.53
2022-10-19T11:12:36.829Z,20.52
2022-10-19T11:16:44.194Z,21.01
2022-10-19T11:20:51.268Z,21.05
2022-10-19T11:25:00.421Z,21.11
2022-10-19T11:29:12.040Z,21.09
2022-10-19T11:33:24.851Z,21.28
2022-10-19T11:37:30.782Z,21.10
2022-10-19T11:41:41.157Z,20.82
2022-10-19T11:45:52.020Z,21.00
2022-10-19T11:50:04.728Z,21.51
2022-10-19T11:54:18.582Z,21.42
2022-10-19T11:58:34.864Z,21.42
2022-10-19T12:03:06.697Z,21.72
2022-10-19T12:07:30.764Z,21.79
2022-10-19T12:11:56.081Z,21.48
2022-10-19T12:15:58.254Z,22.22
2022-10-19T12:20:02.847Z,22.02
2022-10-19T12:24:08.603Z,21.86
2022-10-19T12:28:08.454Z,21.86
2022-10-19T12:32:10.234Z,22.37
2022-10-19T12:36:24.802Z,22.80
2022-10-19T12:40:36.305Z,22.50
2022-10-19T12:44:58.724Z,22.52
2022-10-19T12:49:36.049Z,22.82
2022-10-19T12:53:38.165Z,23.17
2022-10-19T14:31:00.746Z,22.67
2022-10-19T14:36:03.997Z,22.51
2022-10-19T14:40:30.866Z,22.51
2022-10-19T14:44:40.575Z,22.46
2022-10-19T14:48:42.234Z,22.61
2022-10-19T14:52:42.738Z,22.67
2022-10-19T14:56:55.255Z,22.63
2022-10-19T15:00:57.670Z,22.53
2022-10-19T15:05:00.695Z,22.43
2022-10-19T15:09:03.671Z,22.14
2022-10-19T15:13:06.769Z,22.34
2022-10-19T15:17:24.498Z,22.36
2022-10-19T15:21:23.730Z,22.15
2022-10-19T15:25:36.500Z,21.94
2022-10-19T15:29:35.631Z,21.45
2022-10-19T15:33:47.152Z,20.91
2022-10-19T15:38:15.697Z,20.58
2022-10-19T15:42:37.602Z,20.07
2022-10-19T15:47:00.398Z,19.25
2022-10-19T15:51:02.410Z,18.78
2022-10-19T15:55:03.078Z,18.65
2022-10-19T15:59:04.956Z,18.70
2022-10-19T16:03:07.467Z,18.82
2022-10-19T16:07:10.907Z,18.35
2022-10-19T16:11:15.208Z,17.52
2022-10-19T16:15:21.962Z,17.29
2022-10-19T16:19:22.795Z,17.18
2022-10-19T16:23:24.440Z,16.71
2022-10-19T16:27:24.223Z,16.45
2022-10-19T16:31:24.000Z,16.27
2022-10-19T16:35:25.184Z,16.12
2022-10-19T16:39:26.184Z,15.84
2022-10-19T16:43:26.665Z,16.24
2022-10-19T16:47:26.456Z,16.58
2022-10-19T16:51:37.058Z,16.75
2022-10-19T16:55:43.058Z,16.49
2022-10-19T17:03:58.525Z,16.02
2022-10-19T17:07:57.624Z,15.92
2022-10-19T17:11:59.683Z,16.01
2022-10-19T17:16:16.589Z,16.22
2022-10-19T17:20:27.509Z,16.44
2022-10-19T17:24:28.015Z,16.55
2022-10-19T17:28:32.868Z,16.16
2022-10-19T17:32:32.143Z,16.07
2022-10-19T17:36:34.782Z,15.97
2022-10-19T17:40:35.262Z,15.60
2022-10-19T17:44:37.428Z,15.44
2022-10-19T17:48:40.169Z,15.52
2022-10-19T17:52:40.024Z,16.14
2022-10-19T17:56:40.815Z,16.23
2022-10-19T18:00:43.194Z,16.32
2022-10-19T18:04:52.796Z,16.08
2022-10-19T18:09:00.612Z,15.78
2022-10-19T18:13:06.638Z,15.89
2022-10-19T18:17:09.698Z,15.87
2022-10-19T18:21:12.456Z,15.60
2022-10-19T18:25:21.716Z,15.35
2022-10-19T18:29:31.493Z,15.04
2022-10-19T18:33:39.142Z,14.46
2022-10-19T18:37:43.334Z,14.23
2022-10-19T18:41:56.979Z,14.14
2022-10-19T18:45:58.054Z,14.27
2022-10-19T18:50:00.232Z,14.09
2022-10-19T18:54:05.050Z,14.16
2022-10-19T18:58:05.267Z,14.22
2022-10-19T19:02:05.840Z,14.68
2022-10-19T19:06:09.709Z,14.46
2022-10-19T19:10:12.715Z,14.04
2022-10-19T19:14:15.499Z,13.68
2022-10-19T19:22:18.463Z,13.37
2022-10-19T19:26:21.361Z,12.88
2022-10-19T19:30:21.177Z,13.32
2022-10-19T19:34:20.486Z,13.23
2022-10-19T19:43:08.172Z,12.64
2022-10-19T19:47:29.275Z,12.53
2022-10-19T19:51:28.694Z,12.62
2022-10-19T19:55:42.248Z,13.08
2022-10-19T19:59:41.613Z,13.65
2022-10-19T20:03:46.862Z,14.09
2022-10-19T20:07:50.418Z,14.85
2022-10-19T20:11:52.319Z,14.77
2022-10-19T20:16:11.407Z,15.22
2022-10-19T20:20:12.264Z,15.23
2022-10-19T20:24:12.156Z,14.91
2022-10-19T20:28:14.002Z,14.82
2022-10-19T20:32:13.263Z,14.52
2022-10-19T20:36:15.636Z,14.27
2022-10-19T20:40:15.611Z,13.60
2022-10-19T20:44:20.473Z,14.28
2022-10-19T20:48:20.231Z,14.48
2022-10-19T20:52:19.484Z,14.68
2022-10-19T20:56:22.735Z,14.52
2022-10-19T21:00:24.255Z,14.42
2022-10-19T21:04:25.269Z,14.15
2022-10-19T21:08:24.486Z,13.92
2022-10-19T21:12:24.307Z,13.86
2022-10-19T21:16:30.112Z,14.01
2022-10-19T21:20:29.870Z,13.93
2022-10-19T21:24:31.944Z,14.21
2022-10-19T21:28:33.933Z,14.12
2022-10-19T21:32:52.351Z,14.33
2022-10-19T21:36:52.714Z,13.89
2022-10-19T21:40:51.995Z,13.27
2022-10-19T21:45:01.029Z,12.92
2022-10-19T21:49:02.686Z,12.53
2022-10-19T21:53:02.573Z,12.53
2022-10-19T21:57:02.733Z,12.70
2022-10-19T22:01:06.377Z,12.68
2022-10-19T22:05:08.771Z,12.64
2022-10-19T22:09:10.770Z,12.81
2022-10-19T22:13:10.524Z,12.47
2022-10-19T22:17:10.119Z,12.24
2022-10-19T22:21:14.765Z,12.29
2022-10-19T22:25:14.519Z,12.13
2022-10-19T22:29:14.769Z,11.74
2022-10-19T22:33:27.654Z,11.75
2022-10-19T22:37:29.462Z,11.37
2022-10-19T22:41:29.289Z,11.37
2022-10-19T22:45:29.131Z,11.41
2022-10-19T22:49:28.794Z,11.15
2022-10-19T22:53:30.658Z,10.94
2022-10-19T22:57:29.752Z,10.87
2022-10-19T23:01:30.041Z,10.81
2022-10-19T23:05:29.635Z,11.00
2022-10-19T23:09:30.941Z,11.41
2022-10-19T23:13:30.315Z,11.61
2022-10-19T23:17:29.970Z,11.88
2022-10-19T23:21:29.085Z,12.12
2022-10-19T23:29:34.942Z,12.32
2022-10-19T23:33:34.924Z,12.20
2022-10-19T23:37:35.998Z,12.03
2022-10-19T23:41:37.525Z,12.51
2022-10-19T23:45:37.215Z,12.53
2022-10-19T23:49:36.918Z,12.64
2022-10-19T23:53:40.813Z,12.52
2022-10-19T23:57:43.250Z,12.53
